Terminal Aerodrome Forecast
Issued by NWS

Home | Current Version | Previous Version | Text Only | Print | Product List | Glossary On
Versions: 1 2 3 4 5 6 7 8 9 10 11 12 13 14 15
787
FTUS45 KTFX 231742
TAFLWT
TAF
KLWT 231742Z 2318/2418 34005KT 6SM -SN BR SCT006 OVC020
      TEMPO 2318/2322 BKN006 OVC020=

USA.gov is the U.S. government's official web portal to all federal, state and local government web resources and services.